createdAt,value
2019-04-07T00:02:20.902Z,20.52
2019-04-07T00:07:24.373Z,20.75
2019-04-07T00:12:29.273Z,21.17
2019-04-07T00:17:32.719Z,21.73
2019-04-07T00:22:36.760Z,21.75
2019-04-07T00:27:53.340Z,21.87
2019-04-07T00:32:56.788Z,21.95
2019-04-07T00:38:00.605Z,22.85
2019-04-07T00:43:04.505Z,23.27
2019-04-07T00:48:09.053Z,22.17
2019-04-07T00:53:12.579Z,25.02
2019-04-07T00:58:16.420Z,25.02
2019-04-07T01:03:20.045Z,24.90
2019-04-07T01:08:23.710Z,25.30
2019-04-07T01:13:27.329Z,24.52
2019-04-07T01:18:32.891Z,24.55
2019-04-07T01:23:36.415Z,31.02
2019-04-07T01:28:40.704Z,27.25
2019-04-07T01:33:46.873Z,25.23
2019-04-07T01:38:51.164Z,25.08
2019-04-07T01:44:01.073Z,24.92
2019-04-07T01:49:27.146Z,26.55
2019-04-07T01:55:02.789Z,30.25
2019-04-07T02:00:26.415Z,26.97
2019-04-07T02:05:58.607Z,26.90
2019-04-07T02:11:06.171Z,27.50
2019-04-07T02:16:27.848Z,28.30
2019-04-07T02:21:54.607Z,28.20
2019-04-07T02:27:18.028Z,28.98
2019-04-07T02:32:42.941Z,28.35
2019-04-07T02:37:54.597Z,28.57
2019-04-07T02:43:10.754Z,29.05
2019-04-07T02:48:35.236Z,29.85
2019-04-07T02:53:48.804Z,31.35
2019-04-07T02:58:58.234Z,29.67
2019-04-07T03:04:11.700Z,30.40
2019-04-07T03:09:34.975Z,32.60
2019-04-07T03:14:55.885Z,33.38
2019-04-07T03:20:23.089Z,32.20
2019-04-07T03:25:46.525Z,30.00
2019-04-07T03:31:14.743Z,31.93
2019-04-07T03:36:28.521Z,29.25
2019-04-07T03:42:04.615Z,28.95
2019-04-07T03:47:18.416Z,30.17
2019-04-07T03:52:40.508Z,31.75
2019-04-07T03:57:53.420Z,32.45
2019-04-07T04:03:05.215Z,31.27
2019-04-07T04:08:22.291Z,31.35
2019-04-07T04:13:35.738Z,32.05
2019-04-07T04:18:40.551Z,36.45
2019-04-07T04:23:45.742Z,36.88
2019-04-07T04:28:50.734Z,32.88
2019-04-07T04:33:55.655Z,34.00
2019-04-07T04:39:00.491Z,32.93
2019-04-07T04:44:04.090Z,31.15
2019-04-07T04:49:07.795Z,30.75
2019-04-07T04:54:11.135Z,31.77
2019-04-07T04:59:14.882Z,31.23
2019-04-07T05:04:19.182Z,30.32
2019-04-07T05:09:24.444Z,31.73
2019-04-07T05:14:28.464Z,32.53
2019-04-07T05:19:32.324Z,30.97
2019-04-07T05:24:36.656Z,31.55
2019-04-07T05:29:40.262Z,33.33
2019-04-07T05:34:44.437Z,34.45
2019-04-07T05:39:48.486Z,32.15
2019-04-07T05:44:52.910Z,33.85
2019-04-07T05:49:59.534Z,33.63
2019-04-07T05:55:03.042Z,34.05
2019-04-07T06:00:11.132Z,35.50
2019-04-07T06:05:16.219Z,34.98
2019-04-07T06:10:22.339Z,36.38
2019-04-07T06:15:24.823Z,32.90
2019-04-07T06:20:29.027Z,28.67
2019-04-07T06:25:36.940Z,24.82
2019-04-07T06:30:37.951Z,25.85
2019-04-07T06:35:45.075Z,26.15
2019-04-07T06:40:47.988Z,16.37
2019-04-07T06:46:00.396Z,16.15
2019-04-07T06:51:10.902Z,15.55
2019-04-07T06:56:43.594Z,15.83
2019-04-07T07:01:58.967Z,19.25
2019-04-07T07:07:16.734Z,14.23
2019-04-07T07:12:46.072Z,13.93
2019-04-07T07:18:02.532Z,14.13
2019-04-07T07:23:13.336Z,13.60
2019-04-07T07:28:16.163Z,18.90
2019-04-07T07:33:20.310Z,20.62
2019-04-07T07:38:24.565Z,17.42
2019-04-07T07:43:30.199Z,19.73
2019-04-07T07:48:33.986Z,18.27
2019-04-07T07:53:38.258Z,17.85
2019-04-07T07:58:41.672Z,18.17
2019-04-07T08:03:45.967Z,18.17
2019-04-07T08:08:51.480Z,17.67
2019-04-07T08:13:55.459Z,17.57
2019-04-07T08:19:00.491Z,16.32
2019-04-07T08:24:05.459Z,20.40
2019-04-07T08:29:12.559Z,16.70
2019-04-07T08:34:15.019Z,17.37
2019-04-07T08:39:24.415Z,17.17
2019-04-07T08:44:26.946Z,14.80
2019-04-07T08:49:32.343Z,16.87
2019-04-07T08:54:35.614Z,16.97
2019-04-07T08:59:42.468Z,18.15
2019-04-07T09:04:49.752Z,18.67
2019-04-07T09:09:50.123Z,18.85
2019-04-07T09:14:53.550Z,17.82
2019-04-07T09:20:17.251Z,17.67
2019-04-07T09:25:42.002Z,17.20
2019-04-07T09:30:57.439Z,18.02
2019-04-07T09:36:21.230Z,16.90
2019-04-07T09:41:47.374Z,18.12
2019-04-07T09:47:02.485Z,17.77
2019-04-07T09:52:23.569Z,15.60
2019-04-07T09:57:47.319Z,16.00
2019-04-07T10:03:14.928Z,17.02
2019-04-07T10:08:26.018Z,18.62
2019-04-07T10:13:52.106Z,15.98
2019-04-07T10:19:15.392Z,16.82
2019-04-07T10:24:41.928Z,17.37
2019-04-07T10:30:17.167Z,18.02
2019-04-07T10:35:29.564Z,18.10
2019-04-07T10:40:51.327Z,18.75
2019-04-07T10:46:12.416Z,17.70
2019-04-07T10:51:29.672Z,17.27
2019-04-07T10:56:43.867Z,17.37
2019-04-07T11:02:16.894Z,17.23
2019-04-07T11:07:31.624Z,17.65
2019-04-07T11:13:00.721Z,16.75
2019-04-07T11:18:26.632Z,17.35
2019-04-07T11:23:41.431Z,16.97
2019-04-07T11:29:10.469Z,16.73
2019-04-07T11:34:29.346Z,16.60
2019-04-07T11:39:46.817Z,16.82
2019-04-07T11:45:22.704Z,16.00
2019-04-07T11:50:41.671Z,14.98
2019-04-07T11:56:11.097Z,15.68
2019-04-07T12:01:38.175Z,15.85
2019-04-07T12:06:58.906Z,15.60
2019-04-07T12:12:09.679Z,18.25
2019-04-07T12:17:23.440Z,19.20
2019-04-07T12:22:47.718Z,18.73
2019-04-07T12:28:03.472Z,19.12
2019-04-07T12:38:58.765Z,19.65
2019-04-07T12:44:23.380Z,22.13
2019-04-07T12:49:51.870Z,21.23
2019-04-07T12:55:17.500Z,20.30
2019-04-07T13:00:26.298Z,20.48
2019-04-07T13:05:51.314Z,19.37
2019-04-07T13:11:04.844Z,20.32
2019-04-07T13:16:17.757Z,19.00
2019-04-07T13:21:40.661Z,18.92
2019-04-07T13:27:09.215Z,20.17
2019-04-07T13:32:40.953Z,19.50
2019-04-07T13:37:56.770Z,19.85
2019-04-07T13:43:25.511Z,20.92
2019-04-07T13:48:41.592Z,21.85
2019-04-07T13:54:17.882Z,22.45
2019-04-07T13:59:47.736Z,21.75
2019-04-07T14:05:15.202Z,21.60
2019-04-07T14:10:38.305Z,21.73
2019-04-07T14:16:01.547Z,21.82
2019-04-07T14:21:14.810Z,24.32
2019-04-07T14:26:32.379Z,22.62
2019-04-07T14:31:59.306Z,20.45
2019-04-07T14:37:21.749Z,22.77
2019-04-07T14:42:31.732Z,21.30
2019-04-07T14:47:52.328Z,21.77
2019-04-07T14:53:21.102Z,19.35
2019-04-07T14:58:51.283Z,18.57
2019-04-07T15:03:55.731Z,17.37
2019-04-07T15:09:12.223Z,18.17
2019-04-07T15:14:15.699Z,16.80
2019-04-07T15:19:20.163Z,16.32
2019-04-07T15:24:23.974Z,15.55
2019-04-07T15:29:29.946Z,15.08
2019-04-07T15:34:34.257Z,14.93
2019-04-07T15:39:38.364Z,14.93
2019-04-07T15:44:42.776Z,14.15
2019-04-07T15:49:47.167Z,14.65
2019-04-07T15:54:54.321Z,14.33
2019-04-07T16:00:00.074Z,14.20
2019-04-07T16:05:03.694Z,13.55
2019-04-07T16:10:08.081Z,15.05
2019-04-07T16:15:15.816Z,15.28
2019-04-07T16:20:25.075Z,16.95
2019-04-07T16:25:28.219Z,17.62
2019-04-07T16:30:32.915Z,17.98
2019-04-07T16:35:36.547Z,17.62
2019-04-07T16:40:41.340Z,18.52
2019-04-07T16:45:46.277Z,21.30
2019-04-07T16:50:53.271Z,23.32
2019-04-07T16:55:56.108Z,23.92
2019-04-07T17:01:00.059Z,23.35
2019-04-07T17:06:05.236Z,23.20
2019-04-07T17:11:09.583Z,20.50
2019-04-07T17:16:14.729Z,23.80
2019-04-07T17:21:20.493Z,23.75
2019-04-07T17:26:24.714Z,21.70
2019-04-07T17:31:31.849Z,22.80
2019-04-07T17:36:39.329Z,22.20
2019-04-07T17:41:49.182Z,21.50
2019-04-07T17:47:07.210Z,19.35
2019-04-07T17:52:33.730Z,19.80
2019-04-07T17:57:46.171Z,18.85
2019-04-07T18:03:05.183Z,19.07
2019-04-07T18:08:15.671Z,16.62
2019-04-07T18:13:49.874Z,15.65
2019-04-07T18:19:09.816Z,15.45
2019-04-07T18:24:48.748Z,15.75
2019-04-07T18:30:14.501Z,15.83
2019-04-07T18:35:39.096Z,16.07
2019-04-07T18:41:11.190Z,17.25
2019-04-07T18:46:25.205Z,16.77
2019-04-07T18:51:54.310Z,16.65
2019-04-07T18:57:23.864Z,16.25
2019-04-07T19:02:55.732Z,16.37
2019-04-07T19:08:20.251Z,16.20
2019-04-07T19:13:32.463Z,16.32
2019-04-07T19:18:46.326Z,16.80
2019-04-07T19:24:04.426Z,16.62
2019-04-07T19:29:16.361Z,16.90
2019-04-07T19:34:55.185Z,17.52
2019-04-07T19:40:18.792Z,16.80
2019-04-07T19:45:48.922Z,20.15
2019-04-07T19:51:04.654Z,21.82
2019-04-07T19:56:31.456Z,20.97
2019-04-07T20:01:53.510Z,21.77
2019-04-07T20:07:15.863Z,22.05
2019-04-07T20:12:55.009Z,25.95
2019-04-07T20:18:26.947Z,23.35
2019-04-07T20:23:41.871Z,25.10
2019-04-07T20:29:04.970Z,21.93
2019-04-07T20:34:36.574Z,20.32
2019-04-07T20:39:56.243Z,20.85
2019-04-07T20:45:17.509Z,19.82
2019-04-07T20:50:37.686Z,18.57
2019-04-07T20:56:03.867Z,19.45
2019-04-07T21:01:27.652Z,19.12
2019-04-07T21:06:49.634Z,18.17
2019-04-07T21:12:01.186Z,19.40
2019-04-07T21:17:31.306Z,17.77
2019-04-07T21:22:43.301Z,19.10
2019-04-07T21:27:52.644Z,18.82
2019-04-07T21:33:17.481Z,18.15
2019-04-07T21:38:37.758Z,18.62
2019-04-07T21:43:58.216Z,18.75
2019-04-07T21:49:21.301Z,18.37
2019-04-07T21:54:44.618Z,18.77
2019-04-07T22:00:06.166Z,20.00
2019-04-07T22:05:29.212Z,18.75
2019-04-07T22:10:34.002Z,21.12
2019-04-07T22:15:45.800Z,21.07
2019-04-07T22:20:43.255Z,19.52
2019-04-07T22:25:52.157Z,21.82
2019-04-07T22:30:57.474Z,20.90
2019-04-07T22:36:01.939Z,22.02
2019-04-07T22:41:07.358Z,21.97
2019-04-07T22:46:18.442Z,22.40
2019-04-07T22:51:16.802Z,22.02
2019-04-07T22:56:20.977Z,21.90
2019-04-07T23:01:25.095Z,21.93
2019-04-07T23:06:29.242Z,22.77
2019-04-07T23:11:33.628Z,23.50
2019-04-07T23:16:38.036Z,24.30
2019-04-07T23:21:42.019Z,23.85
2019-04-07T23:26:45.665Z,22.87
2019-04-07T23:31:49.412Z,23.18
2019-04-07T23:36:52.807Z,23.87
2019-04-07T23:41:57.505Z,25.23
2019-04-07T23:47:00.953Z,25.60
2019-04-07T23:52:05.093Z,25.45
2019-04-07T23:57:08.436Z,25.55
